Time;durP1;ratioP1;P1;durP2;ratioP2;P2;SDS_P1;SDS_P2;PMS_P1;PMS_P2;Temp;Humidity;BMP_temperature;BMP_pressure;BME280_temperature;BME280_humidity;BME280_pressure;Samples;Min_cycle;Max_cycle;Signal;HPM_P1;HPM_P2
2023/02/05 00:01:20;;;;;;;3.90;1.30;;;;;;;;;;5108813;28;20047;-81
2023/02/05 00:03:48;;;;;;;2.43;1.47;;;;;;;;;;5099573;28;20148;-82
2023/02/05 00:06:13;;;;;;;5.50;1.60;;;;;;;;;;5110282;28;20043;-80
2023/02/05 00:08:39;;;;;;;7.33;1.43;;;;;;;;;;5114962;28;20027;-82
2023/02/05 00:11:08;;;;;;;3.97;1.77;;;;;;;;;;5105335;28;20574;-82
2023/02/05 00:13:38;;;;;;;2.43;1.23;;;;;;;;;;5093706;28;20078;-82
2023/02/05 00:16:13;;;;;;;1.50;1.23;;;;;;;;;;5103516;28;20517;-80
2023/02/05 00:18:39;;;;;;;5.10;1.50;;;;;;;;;;5096102;28;20034;-81
2023/02/05 00:21:05;;;;;;;3.23;1.63;;;;;;;;;;5113679;28;20024;-83
2023/02/05 00:23:31;;;;;;;7.13;1.83;;;;;;;;;;5115004;28;20486;-83
2023/02/05 00:25:57;;;;;;;2.97;1.70;;;;;;;;;;5106048;28;20134;-82
2023/02/05 00:28:23;;;;;;;2.73;1.50;;;;;;;;;;5094087;28;20056;-81
2023/02/05 00:30:48;;;;;;;4.30;2.10;;;;;;;;;;5094702;28;20022;-82
2023/02/05 00:33:14;;;;;;;4.47;1.37;;;;;;;;;;5092646;28;20440;-81
2023/02/05 00:35:42;;;;;;;2.33;1.20;;;;;;;;;;5094308;28;20059;-84
2023/02/05 00:38:07;;;;;;;4.07;1.50;;;;;;;;;;5092994;28;20123;-82
2023/02/05 00:40:34;;;;;;;4.97;1.70;;;;;;;;;;5095725;28;20158;-81
2023/02/05 00:43:00;;;;;;;3.87;1.77;;;;;;;;;;5114843;28;20034;-83
2023/02/05 00:45:30;;;;;;;3.87;1.37;;;;;;;;;;5115157;28;20106;-82
2023/02/05 00:47:56;;;;;;;3.13;1.60;;;;;;;;;;5113229;28;20119;-81
2023/02/05 00:50:21;;;;;;;3.60;1.83;;;;;;;;;;5113070;28;20063;-83
2023/02/05 00:52:47;;;;;;;4.57;1.57;;;;;;;;;;5091942;28;20043;-81
2023/02/05 00:55:12;;;;;;;3.63;2.33;;;;;;;;;;5091788;28;20020;-80
2023/02/05 00:57:38;;;;;;;4.13;1.50;;;;;;;;;;5110850;28;20092;-79
2023/02/05 01:00:05;;;;;;;3.70;1.97;;;;;;;;;;5112968;28;20031;-82
2023/02/05 01:02:31;;;;;;;3.17;1.60;;;;;;;;;;5095258;28;20058;-82
2023/02/05 01:04:57;;;;;;;3.47;1.80;;;;;;;;;;5093806;28;20035;-82
2023/02/05 01:07:22;;;;;;;3.50;1.63;;;;;;;;;;5091739;28;20020;-81
2023/02/05 01:09:48;;;;;;;3.50;1.53;;;;;;;;;;5092720;28;20559;-83
2023/02/05 01:12:15;;;;;;;2.10;1.20;;;;;;;;;;5093742;28;20026;-82
2023/02/05 01:14:41;;;;;;;3.40;2.37;;;;;;;;;;5092483;28;20052;-81
2023/02/05 01:17:07;;;;;;;1.53;1.07;;;;;;;;;;5091295;28;20042;-81
2023/02/05 01:19:34;;;;;;;9.30;1.37;;;;;;;;;;5091040;28;20028;-82
2023/02/05 01:22:00;;;;;;;4.97;1.60;;;;;;;;;;5091758;28;20032;-83
2023/02/05 01:24:25;;;;;;;5.30;2.07;;;;;;;;;;5091949;28;20028;-84
2023/02/05 01:26:52;;;;;;;5.73;1.73;;;;;;;;;;5105173;28;20027;-83
2023/02/05 01:29:18;;;;;;;3.33;1.50;;;;;;;;;;5111867;28;20340;-81
2023/02/05 01:31:44;;;;;;;2.73;1.40;;;;;;;;;;5112211;28;20026;-83
2023/02/05 01:34:09;;;;;;;7.73;1.83;;;;;;;;;;5112445;28;20028;-80
2023/02/05 01:36:35;;;;;;;2.63;1.10;;;;;;;;;;5103158;28;20496;-82
2023/02/05 01:39:02;;;;;;;1.97;1.30;;;;;;;;;;5092593;28;20448;-80
2023/02/05 01:41:28;;;;;;;4.63;1.90;;;;;;;;;;5091025;28;20101;-81
2023/02/05 01:44:23;;;;;;;2.57;1.33;;;;;;;;;;5092583;28;20034;-82
2023/02/05 01:46:51;;;;;;;1.63;1.17;;;;;;;;;;5079572;28;20040;-81
2023/02/05 01:49:21;;;;;;;4.10;1.53;;;;;;;;;;5092136;28;20038;-79
2023/02/05 01:51:48;;;;;;;3.80;1.43;;;;;;;;;;5100143;28;20027;-82
2023/02/05 01:54:15;;;;;;;3.10;1.37;;;;;;;;;;5113021;28;20527;-83
2023/02/05 01:56:54;;;;;;;4.23;1.43;;;;;;;;;;5112808;28;20034;-81
2023/02/05 01:59:26;;;;;;;2.77;0.93;;;;;;;;;;5111259;28;20038;-82
2023/02/05 02:01:53;;;;;;;1.52;1.27;;;;;;;;;;5110918;28;20032;-81
2023/02/05 02:04:41;;;;;;;4.80;1.33;;;;;;;;;;5111487;28;20062;-81
2023/02/05 02:07:09;;;;;;;4.90;1.30;;;;;;;;;;5101738;28;20096;-82
2023/02/05 02:09:36;;;;;;;1.20;1.10;;;;;;;;;;5092756;28;20028;-81
2023/02/05 02:12:01;;;;;;;3.43;1.93;;;;;;;;;;5091294;28;20028;-82
2023/02/05 02:14:30;;;;;;;7.53;2.40;;;;;;;;;;5092467;28;20032;-81
2023/02/05 02:16:59;;;;;;;3.83;1.70;;;;;;;;;;5090326;28;20039;-82
2023/02/05 02:19:27;;;;;;;5.83;1.90;;;;;;;;;;5092057;28;20081;-81
2023/02/05 02:22:15;;;;;;;6.83;2.10;;;;;;;;;;5090925;28;20035;-82
2023/02/05 02:24:54;;;;;;;2.90;1.30;;;;;;;;;;5072704;28;20032;-81
2023/02/05 02:27:50;;;;;;;2.37;1.47;;;;;;;;;;5082990;28;20392;-82
2023/02/05 02:30:16;;;;;;;2.93;1.73;;;;;;;;;;5091273;28;20028;-82
2023/02/05 02:32:50;;;;;;;6.87;1.43;;;;;;;;;;5106082;28;20390;-81
2023/02/05 02:35:25;;;;;;;1.80;1.60;;;;;;;;;;5110929;28;20103;-81
2023/02/05 02:38:02;;;;;;;4.57;1.70;;;;;;;;;;5097594;28;20361;-81
2023/02/05 02:40:37;;;;;;;7.93;1.90;;;;;;;;;;5094421;28;20027;-81
2023/02/05 02:43:09;;;;;;;4.13;1.93;;;;;;;;;;5096452;28;20071;-82
2023/02/05 02:45:39;;;;;;;5.72;1.88;;;;;;;;;;5095328;28;20073;-82
2023/02/05 02:48:06;;;;;;;4.83;1.87;;;;;;;;;;5112810;28;20028;-82
2023/02/05 02:50:39;;;;;;;7.60;2.47;;;;;;;;;;5115673;28;20051;-83
2023/02/05 02:53:16;;;;;;;3.87;1.50;;;;;;;;;;5114496;28;20027;-83
2023/02/05 02:55:43;;;;;;;3.47;2.07;;;;;;;;;;5116167;28;20502;-82
2023/02/05 02:58:15;;;;;;;4.90;1.90;;;;;;;;;;5099241;28;20024;-81
2023/02/05 03:00:43;;;;;;;1.65;1.27;;;;;;;;;;5096456;28;20028;-81
2023/02/05 03:03:13;;;;;;;6.30;1.83;;;;;;;;;;5097827;28;20039;-83
2023/02/05 03:05:41;;;;;;;4.30;2.20;;;;;;;;;;5081242;28;20024;-82
2023/02/05 03:08:47;;;;;;;10.77;2.57;;;;;;;;;;5112939;28;20020;-82
2023/02/05 03:11:14;;;;;;;6.13;1.77;;;;;;;;;;5119310;28;20038;-80
2023/02/05 03:13:41;;;;;;;6.70;2.03;;;;;;;;;;5096992;28;20030;-83
2023/02/05 03:16:08;;;;;;;3.77;2.10;;;;;;;;;;5098971;28;20658;-82
2023/02/05 03:18:33;;;;;;;4.70;1.70;;;;;;;;;;5116821;28;20028;-81
2023/02/05 03:21:04;;;;;;;3.53;2.33;;;;;;;;;;5118004;28;20045;-80
2023/02/05 03:23:30;;;;;;;6.10;2.27;;;;;;;;;;5098400;28;20035;-81
2023/02/05 03:25:56;;;;;;;4.53;1.80;;;;;;;;;;5096836;28;20050;-82
2023/02/05 03:28:22;;;;;;;8.90;2.10;;;;;;;;;;5096653;28;20024;-82
2023/02/05 03:31:04;;;;;;;3.97;2.07;;;;;;;;;;5096864;28;20028;-83
2023/02/05 03:33:39;;;;;;;4.10;1.60;;;;;;;;;;5115054;28;20436;-82
2023/02/05 03:36:29;;;;;;;6.90;2.00;;;;;;;;;;5117539;28;20085;-82
2023/02/05 03:39:17;;;;;;;8.30;1.40;;;;;;;;;;5076774;28;20036;-83
2023/02/05 03:42:04;;;;;;;4.00;1.30;;;;;;;;;;5080418;28;20488;-81
2023/02/05 03:44:51;;;;;;;3.53;1.53;;;;;;;;;;5096631;28;20111;-81
2023/02/05 03:47:44;;;;;;;5.57;1.67;;;;;;;;;;5104142;28;20107;-82
2023/02/05 03:50:30;;;;;;;5.87;2.07;;;;;;;;;;5116585;28;20090;-81
2023/02/05 03:53:07;;;;;;;3.10;1.50;;;;;;;;;;5105217;28;20030;-83
2023/02/05 03:55:40;;;;;;;5.10;2.50;;;;;;;;;;5095642;28;20028;-82
2023/02/05 03:58:13;;;;;;;9.83;1.97;;;;;;;;;;5109274;28;20015;-82
2023/02/05 04:00:40;;;;;;;3.57;1.70;;;;;;;;;;5117332;28;20035;-81
2023/02/05 04:03:06;;;;;;;6.03;1.70;;;;;;;;;;5117442;28;20080;-83
2023/02/05 04:05:31;;;;;;;3.83;1.83;;;;;;;;;;5117010;28;20663;-82
2023/02/05 04:07:57;;;;;;;5.93;2.10;;;;;;;;;;5106378;28;20028;-82
2023/02/05 04:10:22;;;;;;;9.03;1.90;;;;;;;;;;5095445;28;20032;-81
2023/02/05 04:12:48;;;;;;;3.33;1.70;;;;;;;;;;5096536;28;20424;-82
2023/02/05 04:15:15;;;;;;;3.40;1.60;;;;;;;;;;5096135;28;20128;-81
2023/02/05 04:17:40;;;;;;;2.07;1.47;;;;;;;;;;5097599;28;20038;-82
2023/02/05 04:20:07;;;;;;;6.07;2.10;;;;;;;;;;5097801;28;20476;-84
2023/02/05 04:22:32;;;;;;;4.00;1.93;;;;;;;;;;5103191;28;20027;-80
2023/02/05 04:24:58;;;;;;;4.77;1.57;;;;;;;;;;5105257;28;20100;-81
2023/02/05 04:27:24;;;;;;;4.57;1.50;;;;;;;;;;5102905;28;20020;-83
2023/02/05 04:29:49;;;;;;;7.37;2.30;;;;;;;;;;5117618;28;20023;-81
2023/02/05 04:32:15;;;;;;;3.40;2.20;;;;;;;;;;5111353;28;20031;-81
2023/02/05 04:34:40;;;;;;;6.20;2.40;;;;;;;;;;5097248;28;20063;-83
2023/02/05 04:37:06;;;;;;;4.17;1.60;;;;;;;;;;5097404;28;20152;-83
2023/02/05 04:39:31;;;;;;;4.43;1.77;;;;;;;;;;5115159;28;20177;-83
2023/02/05 04:41:57;;;;;;;4.23;1.60;;;;;;;;;;5113657;28;20033;-83
2023/02/05 04:44:23;;;;;;;5.07;2.87;;;;;;;;;;5095336;28;20069;-82
2023/02/05 04:46:48;;;;;;;8.10;2.43;;;;;;;;;;5095436;28;20070;-82
2023/02/05 04:49:14;;;;;;;4.73;1.70;;;;;;;;;;5095030;28;20185;-81
2023/02/05 04:51:39;;;;;;;11.40;2.50;;;;;;;;;;5094913;28;20047;-81
2023/02/05 04:54:05;;;;;;;5.03;2.00;;;;;;;;;;5094607;28;20043;-81
2023/02/05 04:56:30;;;;;;;3.80;1.90;;;;;;;;;;5096625;28;20032;-83
2023/02/05 04:58:56;;;;;;;2.80;2.10;;;;;;;;;;5094517;28;20384;-81
2023/02/05 05:01:22;;;;;;;6.83;3.27;;;;;;;;;;5096252;28;20512;-82
2023/02/05 05:03:49;;;;;;;4.13;1.80;;;;;;;;;;5095793;28;20024;-82
2023/02/05 05:06:16;;;;;;;7.93;2.27;;;;;;;;;;5094733;28;20044;-83
2023/02/05 05:08:42;;;;;;;4.13;2.83;;;;;;;;;;5110639;28;20032;-84
2023/02/05 05:11:13;;;;;;;8.23;2.60;;;;;;;;;;5115889;28;20062;-82
2023/02/05 05:13:39;;;;;;;5.63;1.87;;;;;;;;;;5101878;28;20475;-81
2023/02/05 05:16:06;;;;;;;5.23;2.30;;;;;;;;;;5094856;28;20275;-80
2023/02/05 05:18:33;;;;;;;5.70;2.60;;;;;;;;;;5108852;28;20107;-83
2023/02/05 05:21:00;;;;;;;5.33;2.00;;;;;;;;;;5116225;28;20077;-81
2023/02/05 05:23:25;;;;;;;6.87;1.70;;;;;;;;;;5104552;28;20028;-81
2023/02/05 05:25:51;;;;;;;3.50;2.10;;;;;;;;;;5096608;28;20031;-82
2023/02/05 05:28:16;;;;;;;4.80;2.00;;;;;;;;;;5094602;28;20031;-83
2023/02/05 05:30:44;;;;;;;7.03;2.17;;;;;;;;;;5095064;28;20061;-80
2023/02/05 05:33:10;;;;;;;6.10;2.50;;;;;;;;;;5101893;28;20032;-82
2023/02/05 05:35:36;;;;;;;9.73;2.30;;;;;;;;;;5113868;28;20495;-82
2023/02/05 05:38:02;;;;;;;4.83;1.93;;;;;;;;;;5088804;28;20403;-82
2023/02/05 05:45:59;;;;;;;3.60;2.20;;;;;;;;;;5115901;28;20035;-81
2023/02/05 05:48:25;;;;;;;14.57;3.20;;;;;;;;;;5105021;28;20024;-81
2023/02/05 05:50:50;;;;;;;10.63;3.17;;;;;;;;;;5096390;28;20042;-81
2023/02/05 05:53:16;;;;;;;7.30;3.10;;;;;;;;;;5102365;28;20091;-82
2023/02/05 05:55:42;;;;;;;5.83;3.13;;;;;;;;;;5097924;28;20380;-82
2023/02/05 05:58:09;;;;;;;5.43;3.10;;;;;;;;;;5107454;28;20035;-82
2023/02/05 06:00:37;;;;;;;6.17;2.73;;;;;;;;;;5096603;28;20039;-81
2023/02/05 06:03:03;;;;;;;9.30;2.73;;;;;;;;;;5102064;28;20027;-82
2023/02/05 06:05:30;;;;;;;5.43;2.80;;;;;;;;;;5114997;28;20046;-82
2023/02/05 06:07:56;;;;;;;7.03;2.70;;;;;;;;;;5115816;28;20031;-81
2023/02/05 06:10:22;;;;;;;5.03;2.63;;;;;;;;;;5115701;28;20027;-83
2023/02/05 06:12:48;;;;;;;9.30;3.70;;;;;;;;;;5112128;28;20270;-82
2023/02/05 06:15:14;;;;;;;9.87;2.60;;;;;;;;;;5096611;28;20048;-82
2023/02/05 06:17:39;;;;;;;5.27;2.17;;;;;;;;;;5099642;28;20028;-82
2023/02/05 06:20:05;;;;;;;7.80;3.27;;;;;;;;;;5117680;28;20028;-81
2023/02/05 06:22:31;;;;;;;5.57;3.00;;;;;;;;;;5118578;28;20105;-83
2023/02/05 06:24:56;;;;;;;4.23;2.47;;;;;;;;;;5119209;28;20023;-82
2023/02/05 06:27:22;;;;;;;6.87;3.20;;;;;;;;;;5119530;28;20026;-82
2023/02/05 06:29:48;;;;;;;9.33;3.13;;;;;;;;;;5081936;28;20040;-83
2023/02/05 06:32:13;;;;;;;9.40;3.27;;;;;;;;;;5097442;28;20028;-83
2023/02/05 06:34:39;;;;;;;5.93;3.47;;;;;;;;;;5116772;28;20028;-84
2023/02/05 06:37:04;;;;;;;6.30;3.20;;;;;;;;;;5119099;28;20046;-82
2023/02/05 06:39:30;;;;;;;11.10;3.80;;;;;;;;;;5117970;28;20043;-83
2023/02/05 06:41:55;;;;;;;7.60;3.47;;;;;;;;;;5119405;28;20012;-81
2023/02/05 06:44:23;;;;;;;5.60;3.73;;;;;;;;;;5103078;28;20032;-83
2023/02/05 06:46:49;;;;;;;7.10;2.93;;;;;;;;;;5098449;28;20028;-82
2023/02/05 06:49:14;;;;;;;8.03;2.97;;;;;;;;;;5098606;28;20082;-83
2023/02/05 06:51:40;;;;;;;5.93;3.10;;;;;;;;;;5099571;28;20036;-81
2023/02/05 06:54:06;;;;;;;5.07;3.23;;;;;;;;;;5098900;28;20091;-83
2023/02/05 06:56:31;;;;;;;7.83;3.10;;;;;;;;;;5097057;28;20035;-83
2023/02/05 06:58:57;;;;;;;6.07;3.13;;;;;;;;;;5107096;28;20016;-81
2023/02/05 07:01:22;;;;;;;9.87;3.40;;;;;;;;;;5116787;28;20066;-81
2023/02/05 07:03:51;;;;;;;11.80;4.50;;;;;;;;;;5108872;28;20024;-82
2023/02/05 07:06:16;;;;;;;6.07;3.67;;;;;;;;;;5097464;28;20028;-82
2023/02/05 07:08:42;;;;;;;9.50;4.00;;;;;;;;;;5096745;28;20074;-83
2023/02/05 07:11:08;;;;;;;11.57;4.90;;;;;;;;;;5097033;28;20028;-82
2023/02/05 07:13:33;;;;;;;12.03;4.00;;;;;;;;;;5103066;28;20032;-84
2023/02/05 07:16:02;;;;;;;8.43;3.80;;;;;;;;;;5118884;28;20118;-82
2023/02/05 07:18:27;;;;;;;7.17;3.27;;;;;;;;;;5111997;28;20074;-83
2023/02/05 07:20:53;;;;;;;12.07;4.47;;;;;;;;;;5097396;28;20024;-79
2023/02/05 07:23:18;;;;;;;12.27;4.40;;;;;;;;;;5102037;28;20031;-83
2023/02/05 07:25:45;;;;;;;7.13;3.77;;;;;;;;;;5116614;28;20090;-82
2023/02/05 07:28:10;;;;;;;12.00;4.87;;;;;;;;;;5114794;28;20177;-82
2023/02/05 07:30:36;;;;;;;12.80;3.97;;;;;;;;;;5096424;28;20059;-81
2023/02/05 07:33:04;;;;;;;9.90;3.93;;;;;;;;;;5095207;28;20103;-82
2023/02/05 07:35:31;;;;;;;13.23;4.87;;;;;;;;;;5098724;28;20067;-83
2023/02/05 07:37:56;;;;;;;12.23;3.97;;;;;;;;;;5095555;28;20040;-82
2023/02/05 07:40:22;;;;;;;6.70;4.63;;;;;;;;;;5095380;28;20028;-82
2023/02/05 07:42:47;;;;;;;12.17;3.53;;;;;;;;;;5095237;28;20071;-82
2023/02/05 07:45:13;;;;;;;5.43;3.20;;;;;;;;;;5095362;28;20036;-83
2023/02/05 07:47:40;;;;;;;9.67;4.37;;;;;;;;;;5097547;28;20368;-83
2023/02/05 07:50:06;;;;;;;8.77;3.57;;;;;;;;;;5115375;28;20023;-82
2023/02/05 07:52:33;;;;;;;9.97;4.10;;;;;;;;;;5118748;28;20055;-83
2023/02/05 07:54:59;;;;;;;9.07;4.23;;;;;;;;;;5116724;28;20042;-81
2023/02/05 07:57:27;;;;;;;10.27;3.93;;;;;;;;;;5099652;28;20655;-82
2023/02/05 07:59:53;;;;;;;10.17;4.27;;;;;;;;;;5117721;28;20023;-79
2023/02/05 08:02:18;;;;;;;11.40;4.33;;;;;;;;;;5117973;28;20035;-83
2023/02/05 08:04:45;;;;;;;7.47;3.87;;;;;;;;;;5102636;28;20118;-80
2023/02/05 08:07:12;;;;;;;7.37;3.83;;;;;;;;;;5095516;28;20036;-81
2023/02/05 08:09:37;;;;;;;9.43;3.93;;;;;;;;;;5109210;28;20027;-82
2023/02/05 08:12:04;;;;;;;7.67;3.30;;;;;;;;;;5097549;28;20089;-81
2023/02/05 08:14:31;;;;;;;10.63;3.27;;;;;;;;;;5097981;28;20032;-83
2023/02/05 08:16:57;;;;;;;11.57;4.80;;;;;;;;;;5098233;28;20031;-82
2023/02/05 08:19:23;;;;;;;9.53;3.87;;;;;;;;;;5097454;28;20024;-81
2023/02/05 08:21:49;;;;;;;10.63;4.53;;;;;;;;;;5095629;28;20028;-83
2023/02/05 08:24:15;;;;;;;6.33;3.57;;;;;;;;;;5097088;28;20058;-83
2023/02/05 08:26:41;;;;;;;7.40;2.57;;;;;;;;;;5096284;28;20130;-83
2023/02/05 08:29:07;;;;;;;8.47;2.23;;;;;;;;;;5102494;28;20019;-82
2023/02/05 08:31:34;;;;;;;8.23;2.73;;;;;;;;;;5117419;28;20501;-82
2023/02/05 08:33:59;;;;;;;8.63;2.50;;;;;;;;;;5118496;28;20470;-84
2023/02/05 08:36:25;;;;;;;3.20;1.67;;;;;;;;;;5116938;28;20031;-82
2023/02/05 08:38:51;;;;;;;4.83;2.23;;;;;;;;;;5104581;28;20040;-82
2023/02/05 08:41:16;;;;;;;5.97;2.67;;;;;;;;;;5095710;28;20026;-83
2023/02/05 08:43:44;;;;;;;5.60;2.30;;;;;;;;;;5096100;28;20475;-81
2023/02/05 08:46:11;;;;;;;7.17;2.90;;;;;;;;;;5080776;28;20050;-82
2023/02/05 08:48:38;;;;;;;3.90;2.23;;;;;;;;;;5096124;28;20028;-82
2023/02/05 08:51:05;;;;;;;2.90;1.83;;;;;;;;;;5095713;28;20103;-82
2023/02/05 08:53:32;;;;;;;2.27;1.33;;;;;;;;;;5095799;28;20027;-81
2023/02/05 08:56:00;;;;;;;10.27;2.50;;;;;;;;;;5097086;28;20032;-82
2023/02/05 08:58:26;;;;;;;2.80;2.10;;;;;;;;;;5078944;28;20047;-82
2023/02/05 09:00:58;;;;;;;4.67;2.57;;;;;;;;;;5079167;28;20038;-82
2023/02/05 09:03:25;;;;;;;7.50;3.53;;;;;;;;;;5094466;28;20024;-81
2023/02/05 09:05:51;;;;;;;6.10;2.83;;;;;;;;;;5094487;28;20336;-80
2023/02/05 09:08:16;;;;;;;7.73;3.40;;;;;;;;;;5094722;28;20026;-81
2023/02/05 09:10:43;;;;;;;7.70;3.17;;;;;;;;;;5094783;28;20115;-82
2023/02/05 09:13:09;;;;;;;5.00;2.03;;;;;;;;;;5094995;28;20024;-83
2023/02/05 09:15:44;;;;;;;3.90;1.47;;;;;;;;;;5093823;28;20338;-82
2023/02/05 09:18:09;;;;;;;3.43;1.97;;;;;;;;;;5095219;28;20089;-82
2023/02/05 09:20:43;;;;;;;5.93;1.77;;;;;;;;;;5094446;28;20368;-84
2023/02/05 09:23:10;;;;;;;4.27;2.53;;;;;;;;;;5095860;28;20043;-82
2023/02/05 09:25:37;;;;;;;4.50;2.13;;;;;;;;;;5095899;28;20024;-83
2023/02/05 09:28:03;;;;;;;8.70;2.60;;;;;;;;;;5094978;28;20121;-81
2023/02/05 09:30:29;;;;;;;3.27;1.77;;;;;;;;;;5096061;28;20123;-82
2023/02/05 09:32:55;;;;;;;5.33;2.60;;;;;;;;;;5094885;28;20078;-83
2023/02/05 09:35:20;;;;;;;16.47;3.47;;;;;;;;;;5077736;28;20028;-83
2023/02/05 09:37:46;;;;;;;6.67;2.93;;;;;;;;;;5094245;28;20130;-83
2023/02/05 09:40:19;;;;;;;4.37;2.63;;;;;;;;;;5095568;28;20387;-81
2023/02/05 09:43:31;;;;;;;9.10;3.60;;;;;;;;;;5095507;28;20034;-80
2023/02/05 09:46:02;;;;;;;8.50;2.90;;;;;;;;;;5065664;28;20070;-82
2023/02/05 09:49:00;;;;;;;4.77;2.60;;;;;;;;;;5077814;28;20028;-82
2023/02/05 09:51:44;;;;;;;4.10;2.20;;;;;;;;;;5095091;28;20063;-84
2023/02/05 09:54:30;;;;;;;3.73;2.57;;;;;;;;;;5094743;28;20024;-85
2023/02/05 09:57:02;;;;;;;5.13;2.87;;;;;;;;;;5097005;28;20020;-84
2023/02/05 09:59:29;;;;;;;3.83;2.47;;;;;;;;;;5095222;28;20607;-83
2023/02/05 10:02:00;;;;;;;4.27;2.40;;;;;;;;;;5095961;28;20028;-83
2023/02/05 10:04:26;;;;;;;5.63;2.90;;;;;;;;;;5096410;28;20056;-82
2023/02/05 10:07:02;;;;;;;8.50;2.73;;;;;;;;;;5095289;28;20035;-83
2023/02/05 10:09:38;;;;;;;8.63;3.00;;;;;;;;;;5095064;28;20024;-81
2023/02/05 10:12:33;;;;;;;5.23;2.87;;;;;;;;;;5094958;28;20035;-83
2023/02/05 10:15:15;;;;;;;3.97;2.27;;;;;;;;;;5076776;28;20028;-83
2023/02/05 10:17:53;;;;;;;;;;;;;;;;;;5095943;28;20080;-82
2023/02/05 10:20:24;;;;;;;16.37;5.50;;;;;;;;;;5094880;28;19908;-82
2023/02/05 10:23:10;;;;;;;4.47;2.10;;;;;;;;;;5095671;28;20024;-81
2023/02/05 10:25:54;;;;;;;6.80;2.00;;;;;;;;;;5096873;28;20123;-82
2023/02/05 10:28:31;;;;;;;3.23;1.80;;;;;;;;;;5095149;28;20036;-83
2023/02/05 10:31:09;;;;;;;4.80;2.13;;;;;;;;;;5096256;28;20024;-85
2023/02/05 10:33:48;;;;;;;8.23;2.23;;;;;;;;;;5096472;28;20036;-83
2023/02/05 10:36:20;;;;;;;4.53;1.50;;;;;;;;;;5094201;28;20114;-83
2023/02/05 10:38:48;;;;;;;10.75;2.40;;;;;;;;;;5085673;28;20025;-83
2023/02/05 10:41:26;;;;;;;9.77;2.33;;;;;;;;;;5074065;28;20082;-83
2023/02/05 10:44:17;;;;;;;5.20;2.20;;;;;;;;;;5074379;28;20036;-83
2023/02/05 10:46:50;;;;;;;4.73;2.00;;;;;;;;;;5076209;28;20111;-82
2023/02/05 10:49:47;;;;;;;2.77;1.40;;;;;;;;;;5073975;28;20445;-82
2023/02/05 10:52:15;;;;;;;8.13;2.20;;;;;;;;;;5075891;28;20103;-82
2023/02/05 10:54:41;;;;;;;2.20;1.67;;;;;;;;;;5074120;28;20025;-82
2023/02/05 10:57:18;;;;;;;7.13;2.00;;;;;;;;;;5057752;28;20404;-85
2023/02/05 10:59:54;;;;;;;4.90;2.37;;;;;;;;;;5074508;28;20020;-83
2023/02/05 11:02:22;;;;;;;7.37;1.73;;;;;;;;;;5077203;28;20028;-82
2023/02/05 11:04:58;;;;;;;5.30;1.77;;;;;;;;;;5077482;28;20025;-81
2023/02/05 11:07:31;;;;;;;7.70;1.87;;;;;;;;;;5077402;28;20154;-83
2023/02/05 11:10:13;;;;;;;5.40;1.60;;;;;;;;;;5077232;28;20045;-82
2023/02/05 11:12:39;;;;;;;5.05;1.92;;;;;;;;;;5060024;28;20032;-83
2023/02/05 11:15:04;;;;;;;5.23;1.53;;;;;;;;;;5077012;28;20119;-82
2023/02/05 11:17:36;;;;;;;13.67;1.93;;;;;;;;;;5078522;28;20090;-83
2023/02/05 11:20:24;;;;;;;1.88;1.50;;;;;;;;;;5076605;28;20020;-82
2023/02/05 11:23:08;;;;;;;5.73;1.63;;;;;;;;;;5064101;28;20093;-83
2023/02/05 11:25:33;;;;;;;6.67;2.07;;;;;;;;;;5078177;28;20032;-83
2023/02/05 11:28:02;;;;;;;3.10;2.80;;;;;;;;;;5077538;28;20153;-83
2023/02/05 11:30:36;;;;;;;3.77;1.70;;;;;;;;;;5077293;28;20035;-82
2023/02/05 11:33:18;;;;;;;5.53;1.67;;;;;;;;;;5076357;28;20114;-82
2023/02/05 11:35:54;;;;;;;4.88;1.45;;;;;;;;;;5077708;28;20384;-82
2023/02/05 11:38:45;;;;;;;8.23;1.90;;;;;;;;;;5085360;28;20051;-82
2023/02/05 11:41:24;;;;;;;5.17;1.40;;;;;;;;;;5099518;28;20078;-84
2023/02/05 11:43:51;;;;;;;5.07;1.47;;;;;;;;;;5097682;28;20039;-81
2023/02/05 11:46:19;;;;;;;4.33;2.43;;;;;;;;;;5096995;28;20027;-83
2023/02/05 11:49:04;;;;;;;4.23;1.50;;;;;;;;;;5097931;28;20464;-82
2023/02/05 11:51:44;;;;;;;1.03;0.97;;;;;;;;;;5097889;28;20102;-83
2023/02/05 11:54:10;;;;;;;5.63;1.60;;;;;;;;;;5097378;28;20519;-82
2023/02/05 11:56:36;;;;;;;4.70;1.70;;;;;;;;;;5097525;28;20082;-83
2023/02/05 11:59:14;;;;;;;3.27;2.13;;;;;;;;;;5097930;28;20479;-81
2023/02/05 12:01:42;;;;;;;3.97;1.53;;;;;;;;;;5099805;28;20024;-82
2023/02/05 12:04:18;;;;;;;3.93;1.50;;;;;;;;;;5098714;28;20042;-84
2023/02/05 12:06:54;;;;;;;2.07;1.43;;;;;;;;;;5080753;28;20059;-84
2023/02/05 12:09:22;;;;;;;4.60;1.67;;;;;;;;;;5099633;28;20055;-82
2023/02/05 12:11:59;;;;;;;3.73;1.40;;;;;;;;;;5079835;28;20028;-82
2023/02/05 12:14:39;;;;;;;4.70;1.57;;;;;;;;;;5097620;28;20383;-83
2023/02/05 12:17:30;;;;;;;1.37;1.17;;;;;;;;;;5096207;28;20028;-82
2023/02/05 12:20:16;;;;;;;5.13;2.60;;;;;;;;;;5096631;28;20505;-82
2023/02/05 12:22:55;;;;;;;2.40;1.47;;;;;;;;;;5095524;28;20056;-83
2023/02/05 12:25:47;;;;;;;15.47;2.40;;;;;;;;;;5095661;28;20020;-81
2023/02/05 12:28:28;;;;;;;6.10;2.30;;;;;;;;;;5096227;28;20079;-83
2023/02/05 12:31:03;;;;;;;2.57;1.40;;;;;;;;;;5095420;28;20096;-82
2023/02/05 12:33:38;;;;;;;4.67;1.83;;;;;;;;;;5095789;28;20058;-84
2023/02/05 12:36:23;;;;;;;4.43;2.13;;;;;;;;;;5095544;28;20020;-83
2023/02/05 12:39:14;;;;;;;6.17;1.80;;;;;;;;;;5084380;28;20429;-80
2023/02/05 12:42:29;;;;;;;3.07;1.43;;;;;;;;;;5076551;28;20363;-82
2023/02/05 12:44:58;;;;;;;4.53;1.50;;;;;;;;;;5070174;28;20395;-83
2023/02/05 12:47:38;;;;;;;5.23;1.53;;;;;;;;;;5075051;28;20025;-82
2023/02/05 12:50:29;;;;;;;10.17;2.53;;;;;;;;;;5077010;28;20488;-82
2023/02/05 12:53:00;;;;;;;3.87;1.40;;;;;;;;;;5075637;28;20020;-82
2023/02/05 12:55:57;;;;;;;3.55;1.55;;;;;;;;;;5077088;28;20056;-83
2023/02/05 12:58:32;;;;;;;4.43;1.53;;;;;;;;;;5076832;28;20556;-83
2023/02/05 13:01:04;;;;;;;3.47;1.77;;;;;;;;;;5076864;28;20597;-81
2023/02/05 13:03:57;;;;;;;3.70;1.30;;;;;;;;;;5075213;28;20483;-82
2023/02/05 13:06:32;;;;;;;5.30;1.95;;;;;;;;;;5076402;28;20052;-82
2023/02/05 13:09:15;;;;;;;4.60;1.80;;;;;;;;;;5077393;28;20024;-81
2023/02/05 13:11:46;;;;;;;6.60;1.70;;;;;;;;;;5076478;28;20028;-82
2023/02/05 13:14:20;;;;;;;8.20;2.40;;;;;;;;;;5075350;28;20496;-82
2023/02/05 13:16:59;;;;;;;4.37;1.67;;;;;;;;;;5074832;28;20060;-83
2023/02/05 13:19:40;;;;;;;6.70;1.60;;;;;;;;;;5075109;28;20130;-82
2023/02/05 13:30:57;;;;;;;2.97;1.70;;;;;;;;;;5076995;28;20096;-82
2023/02/05 13:33:23;;;;;;;6.63;2.87;;;;;;;;;;5075334;28;20020;-81
2023/02/05 13:36:15;;;;;;;3.60;1.80;;;;;;;;;;5078724;28;20050;-83
2023/02/05 13:38:47;;;;;;;;;;;;;;;;;;5085678;28;20491;-83
2023/02/05 13:41:50;;;;;;;5.45;1.50;;;;;;;;;;5097034;28;19912;-81
2023/02/05 13:44:32;;;;;;;4.75;1.70;;;;;;;;;;5097048;28;20048;-82
2023/02/05 13:47:00;;;;;;;5.55;1.95;;;;;;;;;;5096639;28;20063;-83
2023/02/05 13:49:57;;;;;;;2.50;1.87;;;;;;;;;;5095819;28;20052;-82
2023/02/05 13:52:41;;;;;;;4.67;1.33;;;;;;;;;;5095833;28;20028;-83
2023/02/05 13:55:36;;;;;;;5.27;2.13;;;;;;;;;;5096676;28;20031;-86
2023/02/05 13:58:20;;;;;;;7.23;2.47;;;;;;;;;;5097361;28;20087;-83
2023/02/05 14:01:02;;;;;;;2.00;1.40;;;;;;;;;;5096107;28;20104;-82
2023/02/05 14:03:37;;;;;;;3.70;1.27;;;;;;;;;;5095259;28;20024;-83
2023/02/05 14:06:21;;;;;;;3.57;1.93;;;;;;;;;;5095312;28;20028;-84
2023/02/05 14:08:55;;;;;;;3.83;2.30;;;;;;;;;;5096100;28;20570;-83
2023/02/05 14:11:22;;;;;;;4.60;2.17;;;;;;;;;;5096149;28;20531;-80
2023/02/05 14:14:19;;;;;;;5.40;2.33;;;;;;;;;;5078109;28;20032;-83
2023/02/05 14:16:46;;;;;;;4.00;2.03;;;;;;;;;;5094821;28;20098;-84
2023/02/05 14:19:44;;;;;;;4.87;1.70;;;;;;;;;;5095956;28;20613;-83
2023/02/05 14:22:12;;;;;;;4.17;2.00;;;;;;;;;;5088474;28;20036;-83
2023/02/05 14:24:46;;;;;;;3.20;1.90;;;;;;;;;;5095098;28;20028;-82
2023/02/05 14:27:34;;;;;;;8.60;2.40;;;;;;;;;;5094845;28;20555;-81
2023/02/05 14:30:37;;;;;;;3.00;1.77;;;;;;;;;;5096609;28;20387;-81
2023/02/05 14:33:41;;;;;;;7.83;2.20;;;;;;;;;;5094601;28;20048;-82
2023/02/05 14:36:23;;;;;;;4.73;2.37;;;;;;;;;;5095996;28;20023;-81
2023/02/05 14:38:59;;;;;;;4.67;2.20;;;;;;;;;;5098455;28;20173;-82
2023/02/05 14:41:32;;;;;;;3.47;1.97;;;;;;;;;;5097890;28;20081;-83
2023/02/05 14:44:11;;;;;;;3.93;1.87;;;;;;;;;;5098042;28;20028;-83
2023/02/05 14:46:45;;;;;;;3.23;1.60;;;;;;;;;;5098105;28;20039;-83
2023/02/05 14:49:33;;;;;;;8.77;3.17;;;;;;;;;;5097531;28;20020;-82
2023/02/05 14:52:06;;;;;;;6.17;2.00;;;;;;;;;;5099334;28;20048;-83
2023/02/05 14:54:49;;;;;;;6.83;2.10;;;;;;;;;;5099864;28;20051;-83
2023/02/05 14:57:38;;;;;;;4.30;1.47;;;;;;;;;;5098758;28;20015;-85
2023/02/05 15:00:26;;;;;;;5.77;2.40;;;;;;;;;;5098032;28;20032;-83
2023/02/05 15:02:54;;;;;;;4.90;1.77;;;;;;;;;;5099124;28;20048;-82
2023/02/05 15:05:35;;;;;;;3.60;2.07;;;;;;;;;;5097133;28;20020;-80
2023/02/05 15:08:13;;;;;;;7.87;2.30;;;;;;;;;;5097270;28;20024;-82
2023/02/05 15:11:17;;;;;;;5.43;2.13;;;;;;;;;;5097782;28;20106;-84
2023/02/05 15:14:23;;;;;;;6.00;1.43;;;;;;;;;;5095485;28;20059;-81
2023/02/05 15:17:04;;;;;;;6.37;2.03;;;;;;;;;;5097566;28;20024;-82
2023/02/05 15:19:33;;;;;;;6.60;2.43;;;;;;;;;;5097110;28;20071;-82
2023/02/05 15:22:00;;;;;;;5.17;2.47;;;;;;;;;;5096526;28;20063;-82
2023/02/05 15:24:32;;;;;;;5.43;1.77;;;;;;;;;;5096643;28;20028;-84
2023/02/05 15:26:59;;;;;;;5.72;2.20;;;;;;;;;;5097917;28;20031;-82